Maximise your Avios, air miles and hotel points

Forums Other Flight changes and cancellations help Delayed BA 107 today Reply To: Delayed BA 107 today

strickers 723 posts

DFW Weather when the aircraft left:

METAR KDFW 110453Z 18008KT 10SM SCT250 05/M07 A3021 RMK AO2 SLP228 T00501067

The UK's biggest frequent flyer website uses cookies, which you can block via your browser settings. Continuing implies your consent to this policy. Our privacy policy is here.